logo
Search for airport 
image banner adimage banner adimage banner ad
image banner ad

FLBW - Nabwalya

Located in , Zambia

ICAO - , IATA -

Data provided by Airmate  

General information

Coordinates: S12°25'49" E31°56'20"
Elevation is 1993 feet MSL.
 
View others Airports in Eastern Province

Operational data

Special qualification required
Current time UTC:
Current local time:
Weather at : - ( 0 km )
METAR: PAKP 152123Z AUTO 19013KT 10SM SCT027 BKN037 OVC046 M04/M09 A3003 RMK AO2 FZRANO
View NOTAMs / SUP AIP / TFR affecting this airport [VIEW]
Communications frequencies: [VIEW]

Runways:

Airport contact information

Address: Zambia

Satellite view of FLBW